createdAt,value
2023-01-17T00:01:30.257Z,63.60
2023-01-17T00:04:15.501Z,63.84
2023-01-17T00:07:00.551Z,64.01
2023-01-17T00:09:45.500Z,63.60
2023-01-17T00:12:12.032Z,63.46
2023-01-17T00:14:38.527Z,64.11
2023-01-17T00:17:05.054Z,63.79
2023-01-17T00:19:50.089Z,63.51
2023-01-17T00:22:46.656Z,63.91
2023-01-17T00:25:42.057Z,63.97
2023-01-17T00:28:08.619Z,63.94
2023-01-17T00:30:35.956Z,63.50
2023-01-17T00:33:02.742Z,64.04
2023-01-17T00:35:31.045Z,64.06
2023-01-17T00:38:02.246Z,63.84
2023-01-17T00:40:28.888Z,64.67
2023-01-17T00:43:14.019Z,64.29
2023-01-17T00:46:01.335Z,64.10
2023-01-17T00:48:46.846Z,64.01
2023-01-17T00:51:31.978Z,63.75
2023-01-17T00:54:18.985Z,64.92
2023-01-17T00:57:04.369Z,64.85
2023-01-17T00:59:49.581Z,64.94
2023-01-17T01:02:35.005Z,64.48
2023-01-17T01:05:20.500Z,64.57
2023-01-17T01:08:05.797Z,64.73
2023-01-17T01:10:51.758Z,64.95
2023-01-17T01:13:37.401Z,64.70
2023-01-17T01:16:22.883Z,64.56
2023-01-17T01:19:08.118Z,65.05
2023-01-17T01:21:53.465Z,64.69
2023-01-17T01:24:38.777Z,64.60
2023-01-17T01:27:23.934Z,64.30
2023-01-17T01:30:09.341Z,64.41
2023-01-17T01:32:54.819Z,64.71
2023-01-17T01:35:22.355Z,64.51
2023-01-17T01:37:49.142Z,64.97
2023-01-17T01:40:18.266Z,64.87
2023-01-17T01:42:52.222Z,65.10
2023-01-17T01:45:22.371Z,64.66
2023-01-17T01:47:49.923Z,65.06
2023-01-17T01:50:17.414Z,64.46
2023-01-17T01:52:46.605Z,64.61
2023-01-17T01:55:18.704Z,64.37
2023-01-17T01:57:48.722Z,64.41
2023-01-17T02:00:27.430Z,64.48
2023-01-17T02:02:56.409Z,64.76
2023-01-17T02:05:24.078Z,64.68
2023-01-17T02:07:59.466Z,63.93
2023-01-17T02:10:25.996Z,64.19
2023-01-17T02:12:53.386Z,64.69
2023-01-17T02:15:23.105Z,65.02
2023-01-17T02:17:59.907Z,64.87
2023-01-17T02:20:43.124Z,64.95
2023-01-17T02:23:45.254Z,64.50
2023-01-17T02:26:31.346Z,64.58
2023-01-17T02:29:19.522Z,64.42
2023-01-17T02:31:58.893Z,64.48
2023-01-17T02:34:35.046Z,64.56
2023-01-17T02:37:09.869Z,64.40
2023-01-17T02:39:40.403Z,64.43
2023-01-17T02:42:11.029Z,64.75
2023-01-17T02:44:41.892Z,64.66
2023-01-17T02:47:29.689Z,64.85
2023-01-17T02:50:01.509Z,64.28
2023-01-17T02:53:03.760Z,64.82
2023-01-17T02:56:07.751Z,64.51
2023-01-17T02:58:57.171Z,65.30
2023-01-17T03:01:43.550Z,65.15
2023-01-17T03:04:16.666Z,65.30
2023-01-17T03:06:56.171Z,65.73
2023-01-17T03:09:23.432Z,66.02
2023-01-17T03:11:49.937Z,66.13
2023-01-17T03:14:16.424Z,66.33
2023-01-17T03:16:43.083Z,66.80
2023-01-17T03:19:09.944Z,66.86
2023-01-17T03:21:36.428Z,67.33
2023-01-17T03:24:03.187Z,67.75
2023-01-17T03:26:30.232Z,67.58
2023-01-17T03:28:56.732Z,67.74
2023-01-17T03:31:23.226Z,68.15
2023-01-17T03:33:49.705Z,67.78
2023-01-17T03:36:16.239Z,67.82
2023-01-17T03:38:42.851Z,67.95
2023-01-17T03:41:09.366Z,68.12
2023-01-17T03:43:35.907Z,68.17
2023-01-17T03:46:04.208Z,67.97
2023-01-17T03:48:30.818Z,67.93
2023-01-17T03:50:57.291Z,68.32
2023-01-17T03:53:23.954Z,68.28
2023-01-17T03:55:50.490Z,68.44
2023-01-17T03:58:17.337Z,67.85
2023-01-17T04:00:43.845Z,68.39
2023-01-17T04:03:10.341Z,68.55
2023-01-17T04:05:36.833Z,68.81
2023-01-17T04:08:03.573Z,68.26
2023-01-17T04:10:30.054Z,68.00
2023-01-17T04:12:56.600Z,67.75
2023-01-17T04:15:23.113Z,68.19
2023-01-17T04:17:49.667Z,68.28
2023-01-17T04:20:29.209Z,68.40
2023-01-17T04:22:55.763Z,69.39
2023-01-17T04:25:22.290Z,69.42
2023-01-17T04:27:48.843Z,69.34
2023-01-17T04:30:15.372Z,69.86
2023-01-17T04:32:41.879Z,69.91
2023-01-17T04:35:09.442Z,69.77
2023-01-17T04:37:36.359Z,70.00
2023-01-17T04:40:04.295Z,70.06
2023-01-17T04:42:30.920Z,69.72
2023-01-17T04:44:57.416Z,69.89
2023-01-17T04:47:23.994Z,69.53
2023-01-17T04:49:50.496Z,70.16
2023-01-17T04:52:18.690Z,70.31
2023-01-17T04:54:45.235Z,70.42
2023-01-17T04:57:11.710Z,70.82
2023-01-17T04:59:38.197Z,70.87
2023-01-17T05:02:04.747Z,71.02
2023-01-17T05:04:31.293Z,71.14
2023-01-17T05:06:57.781Z,71.11
2023-01-17T05:09:24.281Z,71.18
2023-01-17T05:11:50.999Z,71.44
2023-01-17T05:14:17.501Z,72.47
2023-01-17T05:16:43.970Z,71.96
2023-01-17T05:19:10.487Z,72.04
2023-01-17T05:21:36.997Z,72.47
2023-01-17T05:24:03.859Z,72.12
2023-01-17T05:26:30.367Z,72.15
2023-01-17T05:28:57.040Z,71.83
2023-01-17T05:31:23.677Z,71.65
2023-01-17T05:33:50.263Z,72.24
2023-01-17T05:36:16.777Z,72.25
2023-01-17T05:38:43.296Z,71.94
2023-01-17T05:41:09.796Z,71.98
2023-01-17T05:43:36.425Z,72.03
2023-01-17T05:46:02.993Z,71.95
2023-01-17T05:48:29.592Z,72.03
2023-01-17T05:50:56.156Z,71.42
2023-01-17T05:53:23.012Z,71.55
2023-01-17T05:55:49.751Z,71.25
2023-01-17T05:58:19.252Z,71.37
2023-01-17T06:00:46.557Z,71.79
2023-01-17T06:03:13.528Z,71.54
2023-01-17T06:05:40.298Z,71.17
2023-01-17T06:08:07.310Z,71.74
2023-01-17T06:10:34.377Z,71.26
2023-01-17T06:13:06.260Z,71.36
2023-01-17T06:15:34.294Z,71.58
2023-01-17T06:18:05.191Z,71.60
2023-01-17T06:20:31.722Z,71.66
2023-01-17T06:23:01.002Z,71.53
2023-01-17T06:25:27.565Z,71.52
2023-01-17T06:27:55.415Z,71.58
2023-01-17T06:30:22.039Z,72.13
2023-01-17T06:32:55.114Z,71.38
2023-01-17T06:35:22.635Z,72.07
2023-01-17T06:37:55.367Z,71.73
2023-01-17T06:40:22.501Z,71.56
2023-01-17T06:42:49.038Z,71.51
2023-01-17T06:45:15.591Z,71.56
2023-01-17T06:47:42.712Z,71.02
2023-01-17T06:50:11.429Z,71.76
2023-01-17T06:52:37.971Z,71.58
2023-01-17T06:55:04.740Z,71.84
2023-01-17T06:57:31.326Z,71.64
2023-01-17T06:59:57.870Z,72.26
2023-01-17T07:02:24.476Z,71.70
2023-01-17T07:04:51.087Z,71.58
2023-01-17T07:07:17.875Z,71.96
2023-01-17T07:09:44.460Z,71.19
2023-01-17T07:12:11.143Z,71.35
2023-01-17T07:14:37.691Z,71.33
2023-01-17T07:17:04.515Z,71.85
2023-01-17T07:19:32.091Z,71.65
2023-01-17T07:21:58.670Z,71.72
2023-01-17T07:24:25.355Z,71.75
2023-01-17T07:26:52.997Z,71.71
2023-01-17T07:29:19.847Z,71.66
2023-01-17T07:31:48.609Z,71.58
2023-01-17T07:34:15.173Z,71.70
2023-01-17T07:36:41.752Z,72.16
2023-01-17T07:39:09.569Z,71.82
2023-01-17T07:41:41.249Z,71.90
2023-01-17T07:44:10.092Z,71.81
2023-01-17T07:46:36.697Z,72.40
2023-01-17T07:49:03.324Z,72.44
2023-01-17T07:51:29.869Z,72.35
2023-01-17T07:53:56.461Z,72.22
2023-01-17T07:56:23.058Z,72.40
2023-01-17T07:58:50.051Z,72.05
2023-01-17T08:01:17.301Z,72.03
2023-01-17T08:03:43.938Z,71.63
2023-01-17T08:06:20.200Z,71.59
2023-01-17T08:08:47.053Z,71.57
2023-01-17T08:11:14.017Z,71.74
2023-01-17T08:13:41.719Z,71.23
2023-01-17T08:16:12.492Z,71.52
2023-01-17T08:18:39.279Z,71.21
2023-01-17T08:21:13.287Z,71.06
2023-01-17T08:23:39.824Z,70.99
2023-01-17T08:26:06.357Z,70.77
2023-01-17T08:28:32.977Z,70.95
2023-01-17T08:31:06.471Z,70.39
2023-01-17T08:33:32.992Z,70.55
2023-01-17T08:35:59.571Z,70.16
2023-01-17T08:38:26.108Z,69.92
2023-01-17T08:40:52.692Z,70.07
2023-01-17T08:43:19.757Z,69.84
2023-01-17T08:45:48.335Z,70.00
2023-01-17T08:48:15.694Z,69.79
2023-01-17T08:50:42.244Z,69.62
2023-01-17T08:53:08.846Z,68.80
2023-01-17T08:55:39.512Z,69.15
2023-01-17T08:58:06.058Z,68.73
2023-01-17T09:00:32.668Z,68.92
2023-01-17T09:02:59.530Z,68.59
2023-01-17T09:05:26.059Z,68.19
2023-01-17T09:07:52.597Z,67.84
2023-01-17T09:10:19.319Z,66.93
2023-01-17T09:12:45.908Z,67.07
2023-01-17T09:15:15.582Z,67.10
2023-01-17T09:17:42.145Z,67.60
2023-01-17T09:20:09.320Z,66.70
2023-01-17T09:22:37.698Z,66.39
2023-01-17T09:25:05.083Z,66.83
2023-01-17T09:27:31.609Z,66.59
2023-01-17T09:29:58.245Z,66.64
2023-01-17T09:32:24.839Z,66.68
2023-01-17T09:34:51.363Z,66.31
2023-01-17T09:37:17.942Z,66.38
2023-01-17T09:39:44.501Z,66.29
2023-01-17T09:42:33.961Z,65.75
2023-01-17T09:45:00.628Z,66.27
2023-01-17T09:47:44.947Z,65.58
2023-01-17T09:50:21.418Z,66.17
2023-01-17T09:52:48.064Z,66.34
2023-01-17T09:55:15.816Z,66.09
2023-01-17T09:58:00.609Z,65.71
2023-01-17T10:00:58.319Z,66.14
2023-01-17T10:03:53.085Z,66.05
2023-01-17T10:06:34.147Z,65.86
2023-01-17T10:09:13.575Z,66.02
2023-01-17T10:12:21.739Z,65.76
2023-01-17T10:14:53.297Z,65.85
2023-01-17T10:17:40.975Z,66.05
2023-01-17T10:20:51.168Z,65.68
2023-01-17T10:23:22.079Z,66.25
2023-01-17T10:25:49.859Z,65.81
2023-01-17T10:28:20.511Z,66.03
2023-01-17T10:31:04.850Z,65.80
2023-01-17T10:33:38.217Z,66.27
2023-01-17T10:36:15.282Z,66.00
2023-01-17T10:38:46.071Z,66.25
2023-01-17T10:41:26.335Z,65.82
2023-01-17T10:43:59.786Z,66.46
2023-01-17T10:46:31.440Z,66.50
2023-01-17T10:48:58.226Z,67.01
2023-01-17T10:51:49.904Z,67.08
2023-01-17T10:54:49.959Z,67.24
2023-01-17T10:57:20.798Z,67.73
2023-01-17T10:59:47.371Z,67.90
2023-01-17T11:02:30.206Z,68.06
2023-01-17T11:04:57.727Z,68.31
2023-01-17T11:07:29.402Z,67.98
2023-01-17T11:09:57.999Z,68.27
2023-01-17T11:12:53.284Z,68.63
2023-01-17T11:15:25.761Z,68.58
2023-01-17T11:18:06.398Z,68.99
2023-01-17T11:20:40.084Z,70.12
2023-01-17T11:23:13.206Z,70.41
2023-01-17T11:25:39.865Z,71.88
2023-01-17T11:28:19.420Z,71.57
2023-01-17T11:30:57.583Z,72.67
2023-01-17T11:33:35.201Z,72.38
2023-01-17T11:36:01.784Z,72.46
2023-01-17T11:38:28.505Z,72.26
2023-01-17T11:41:15.037Z,72.57
2023-01-17T11:43:58.510Z,72.50
2023-01-17T11:46:26.067Z,72.75
2023-01-17T11:48:57.449Z,72.56
2023-01-17T11:51:30.526Z,73.08
2023-01-17T11:54:25.070Z,72.59
2023-01-17T11:56:57.721Z,72.79
2023-01-17T11:59:28.796Z,73.08
2023-01-17T12:02:16.208Z,73.47
2023-01-17T12:04:47.453Z,73.35
2023-01-17T12:07:36.229Z,73.25
2023-01-17T12:10:09.724Z,72.86
2023-01-17T12:13:01.132Z,73.10
2023-01-17T12:15:59.997Z,72.13
2023-01-17T12:19:03.305Z,72.41
2023-01-17T12:21:48.579Z,69.94
2023-01-17T12:24:40.376Z,68.73
2023-01-17T12:27:16.833Z,69.89
2023-01-17T12:29:49.728Z,68.08
2023-01-17T12:32:29.328Z,68.41
2023-01-17T12:35:00.952Z,67.85
2023-01-17T12:37:39.811Z,65.16
2023-01-17T12:40:30.094Z,64.96
2023-01-17T12:43:08.045Z,62.68
2023-01-17T12:45:38.675Z,64.18
2023-01-17T12:48:10.816Z,64.16
2023-01-17T12:50:43.321Z,63.26
2023-01-17T12:53:19.025Z,63.23
2023-01-17T12:55:51.291Z,63.76
2023-01-17T12:58:23.853Z,63.45
2023-01-17T13:01:03.556Z,63.88
2023-01-17T13:03:53.131Z,62.92
2023-01-17T13:06:53.187Z,64.17
2023-01-17T13:09:22.375Z,64.84
2023-01-17T13:11:55.120Z,64.76
2023-01-17T13:14:21.658Z,63.53
2023-01-17T13:16:57.825Z,62.05
2023-01-17T13:19:34.871Z,61.62
2023-01-17T13:22:03.079Z,61.65
2023-01-17T13:24:52.165Z,61.48
2023-01-17T13:27:39.118Z,56.87
2023-01-17T13:30:32.188Z,59.72
2023-01-17T13:33:12.825Z,59.16
2023-01-17T13:35:44.219Z,59.58
2023-01-17T13:38:29.918Z,58.65
2023-01-17T13:41:01.008Z,58.77
2023-01-17T13:43:31.533Z,59.56
2023-01-17T13:46:00.383Z,60.08
2023-01-17T13:48:30.010Z,59.57
2023-01-17T13:51:02.361Z,59.31
2023-01-17T13:53:39.535Z,59.70
2023-01-17T13:56:08.962Z,59.33
2023-01-17T13:58:49.975Z,58.38
2023-01-17T14:01:45.622Z,59.87
2023-01-17T14:04:12.584Z,59.95
2023-01-17T14:06:41.074Z,59.75
2023-01-17T14:09:26.123Z,59.41
2023-01-17T14:12:06.103Z,59.63
2023-01-17T14:14:41.699Z,59.99
2023-01-17T14:17:14.442Z,59.85
2023-01-17T14:19:42.618Z,60.65
2023-01-17T14:22:18.419Z,60.77
2023-01-17T14:25:09.993Z,60.64
2023-01-17T14:28:15.643Z,60.87
2023-01-17T14:30:42.488Z,61.36
2023-01-17T14:33:30.058Z,60.87
2023-01-17T14:35:58.893Z,61.72
2023-01-17T14:38:31.649Z,61.83
2023-01-17T14:41:07.531Z,61.54
2023-01-17T14:43:35.908Z,61.77
2023-01-17T14:46:04.957Z,62.01
2023-01-17T14:48:31.624Z,62.08
2023-01-17T14:51:00.125Z,61.54
2023-01-17T14:53:31.387Z,62.12
2023-01-17T14:56:00.596Z,61.39
2023-01-17T14:58:32.535Z,61.67
2023-01-17T15:01:05.536Z,61.43
2023-01-17T15:03:35.428Z,61.42
2023-01-17T15:06:23.146Z,60.98
2023-01-17T15:08:50.249Z,60.80
2023-01-17T15:11:20.070Z,60.79
2023-01-17T15:13:49.968Z,60.60
2023-01-17T15:16:38.039Z,61.08
2023-01-17T15:19:12.866Z,61.19
2023-01-17T15:21:42.624Z,61.13
2023-01-17T15:24:18.275Z,61.08
2023-01-17T15:26:45.176Z,61.13
2023-01-17T15:29:17.573Z,61.40
2023-01-17T15:31:49.314Z,61.32
2023-01-17T15:34:29.409Z,61.39
2023-01-17T15:36:58.551Z,61.24
2023-01-17T15:39:30.282Z,61.40
2023-01-17T15:41:59.458Z,61.19
2023-01-17T15:44:50.342Z,61.20
2023-01-17T15:47:27.830Z,61.21
2023-01-17T15:49:54.382Z,61.26
2023-01-17T15:52:21.539Z,61.11
2023-01-17T15:55:12.817Z,61.38
2023-01-17T15:57:39.929Z,61.33
2023-01-17T16:00:14.747Z,61.31
2023-01-17T16:02:46.006Z,61.41
2023-01-17T16:05:33.916Z,61.32
2023-01-17T16:08:04.248Z,61.85
2023-01-17T16:10:39.196Z,62.16
2023-01-17T16:13:08.198Z,62.22
2023-01-17T16:15:36.591Z,62.38
2023-01-17T16:18:19.437Z,62.21
2023-01-17T16:20:59.313Z,62.58
2023-01-17T16:23:27.212Z,62.04
2023-01-17T16:25:56.702Z,62.14
2023-01-17T16:28:23.486Z,62.65
2023-01-17T16:30:50.192Z,62.70
2023-01-17T16:33:16.880Z,62.60
2023-01-17T16:35:43.439Z,62.80
2023-01-17T16:38:19.751Z,62.86
2023-01-17T16:40:46.965Z,63.00
2023-01-17T16:43:15.483Z,62.75
2023-01-17T16:45:45.311Z,62.83
2023-01-17T16:48:12.567Z,62.87
2023-01-17T16:50:48.052Z,63.25
2023-01-17T16:53:15.499Z,63.64
2023-01-17T16:55:43.038Z,63.98
2023-01-17T16:58:09.917Z,63.73
2023-01-17T17:00:36.778Z,64.10
2023-01-17T17:03:03.396Z,63.89
2023-01-17T17:05:30.771Z,64.28
2023-01-17T17:07:57.525Z,64.17
2023-01-17T17:10:25.249Z,64.72
2023-01-17T17:12:52.102Z,64.87
2023-01-17T17:15:18.871Z,64.68
2023-01-17T17:17:45.415Z,64.90
2023-01-17T17:20:14.410Z,65.03
2023-01-17T17:22:45.213Z,65.57
2023-01-17T17:25:12.256Z,65.15
2023-01-17T17:27:39.117Z,65.67
2023-01-17T17:30:06.349Z,65.24
2023-01-17T17:32:32.900Z,65.23
2023-01-17T17:34:59.766Z,65.48
2023-01-17T17:37:28.960Z,65.65
2023-01-17T17:39:56.374Z,65.78
2023-01-17T17:42:23.008Z,65.93
2023-01-17T17:44:49.545Z,65.62
2023-01-17T17:47:16.408Z,65.68
2023-01-17T17:49:43.511Z,65.97
2023-01-17T17:52:10.100Z,65.74
2023-01-17T17:54:36.746Z,66.14
2023-01-17T17:57:03.365Z,66.18
2023-01-17T17:59:30.193Z,66.13
2023-01-17T18:01:57.123Z,65.83
2023-01-17T18:04:23.783Z,66.52
2023-01-17T18:06:50.371Z,66.54
2023-01-17T18:09:16.968Z,65.98
2023-01-17T18:11:43.790Z,66.55
2023-01-17T18:14:14.832Z,66.54
2023-01-17T18:16:42.270Z,66.36
2023-01-17T18:19:16.772Z,66.63
2023-01-17T18:21:43.561Z,66.58
2023-01-17T18:24:15.150Z,66.85
2023-01-17T18:26:46.717Z,66.79
2023-01-17T18:29:15.782Z,66.71
2023-01-17T18:31:46.032Z,66.94
2023-01-17T18:34:14.452Z,66.76
2023-01-17T18:36:41.804Z,67.16
2023-01-17T18:39:22.439Z,67.12
2023-01-17T18:41:49.459Z,67.04
2023-01-17T18:44:16.406Z,67.19
2023-01-17T18:46:43.310Z,67.34
2023-01-17T18:49:11.515Z,67.54
2023-01-17T18:51:38.247Z,67.63
2023-01-17T18:54:06.914Z,67.76
2023-01-17T18:56:34.203Z,68.08
2023-01-17T18:59:01.146Z,68.13
2023-01-17T19:01:30.933Z,68.53
2023-01-17T19:03:59.327Z,68.60
2023-01-17T19:06:30.541Z,68.65
2023-01-17T19:08:58.408Z,68.89
2023-01-17T19:11:25.560Z,68.95
2023-01-17T19:13:53.456Z,69.19
2023-01-17T19:16:29.211Z,69.29
2023-01-17T19:18:57.406Z,69.42
2023-01-17T19:21:26.053Z,69.23
2023-01-17T19:23:53.845Z,69.27
2023-01-17T19:26:20.521Z,69.47
2023-01-17T19:28:48.616Z,69.49
2023-01-17T19:31:26.778Z,69.78
2023-01-17T19:33:57.249Z,69.67
2023-01-17T19:36:34.329Z,69.88
2023-01-17T19:39:06.295Z,70.10
2023-01-17T19:41:40.748Z,70.20
2023-01-17T19:44:08.958Z,70.39
2023-01-17T19:46:36.059Z,70.66
2023-01-17T19:49:04.104Z,70.93
2023-01-17T19:51:30.704Z,70.88
2023-01-17T19:53:59.884Z,70.78
2023-01-17T19:56:27.433Z,71.41
2023-01-17T19:58:54.091Z,71.49
2023-01-17T20:01:24.546Z,71.15
2023-01-17T20:03:51.745Z,71.16
2023-01-17T20:06:23.309Z,71.30
2023-01-17T20:08:50.132Z,71.63
2023-01-17T20:11:19.176Z,71.57
2023-01-17T20:13:46.667Z,71.85
2023-01-17T20:16:14.499Z,71.85
2023-01-17T20:18:41.478Z,71.61
2023-01-17T20:21:13.516Z,71.88
2023-01-17T20:23:46.911Z,72.25
2023-01-17T20:26:19.092Z,72.38
2023-01-17T20:28:47.045Z,72.28
2023-01-17T20:31:17.547Z,72.00
2023-01-17T20:33:45.563Z,72.04
2023-01-17T20:36:15.007Z,72.30
2023-01-17T20:38:45.519Z,72.45
2023-01-17T20:41:35.982Z,72.50
2023-01-17T20:44:04.479Z,72.39
2023-01-17T20:46:35.354Z,72.19
2023-01-17T20:49:05.363Z,72.37
2023-01-17T20:51:34.450Z,72.57
2023-01-17T20:54:03.438Z,72.47
2023-01-17T20:56:34.535Z,72.85
2023-01-17T20:59:03.679Z,72.98
2023-01-17T21:01:30.709Z,72.88
2023-01-17T21:03:57.690Z,73.12
2023-01-17T21:06:24.677Z,73.25
2023-01-17T21:08:51.693Z,73.12
2023-01-17T21:11:20.739Z,73.18
2023-01-17T21:13:51.237Z,73.20
2023-01-17T21:16:20.394Z,73.13
2023-01-17T21:18:48.137Z,73.33
2023-01-17T21:21:17.679Z,73.77
2023-01-17T21:23:45.037Z,73.49
2023-01-17T21:26:13.606Z,73.44
2023-01-17T21:28:43.185Z,73.51
2023-01-17T21:31:25.327Z,73.61
2023-01-17T21:33:53.305Z,73.68
2023-01-17T21:36:23.219Z,73.93
2023-01-17T21:38:56.789Z,73.95
2023-01-17T21:41:26.513Z,73.82
2023-01-17T21:43:57.897Z,73.81
2023-01-17T21:46:25.279Z,73.84
2023-01-17T21:48:51.852Z,73.94
2023-01-17T21:51:19.753Z,74.06
2023-01-17T21:53:46.377Z,74.16
2023-01-17T21:56:32.618Z,73.89
2023-01-17T21:58:59.751Z,73.92
2023-01-17T22:01:32.040Z,73.86
2023-01-17T22:04:02.952Z,73.82
2023-01-17T22:06:30.735Z,73.88
2023-01-17T22:08:58.047Z,73.97
2023-01-17T22:11:25.816Z,74.01
2023-01-17T22:13:53.163Z,74.13
2023-01-17T22:16:23.345Z,74.14
2023-01-17T22:18:50.821Z,74.42
2023-01-17T22:21:23.011Z,74.29
2023-01-17T22:23:52.264Z,74.44
2023-01-17T22:26:19.898Z,74.29
2023-01-17T22:28:46.415Z,74.50
2023-01-17T22:31:24.809Z,74.18
2023-01-17T22:33:59.638Z,74.42
2023-01-17T22:36:26.680Z,74.46
2023-01-17T22:38:53.311Z,74.35
2023-01-17T22:41:25.568Z,74.23
2023-01-17T22:43:53.713Z,74.38
2023-01-17T22:46:25.349Z,74.44
2023-01-17T22:48:53.305Z,74.58
2023-01-17T22:51:21.701Z,74.53
2023-01-17T22:53:50.308Z,74.47
2023-01-17T22:56:19.283Z,74.45
2023-01-17T22:58:48.602Z,74.44
2023-01-17T23:01:18.007Z,74.52
2023-01-17T23:03:45.095Z,74.32
2023-01-17T23:06:14.523Z,74.58
2023-01-17T23:08:43.261Z,74.69
2023-01-17T23:11:43.921Z,74.64
2023-01-17T23:14:52.777Z,74.38
2023-01-17T23:17:42.628Z,74.36
2023-01-17T23:20:10.472Z,74.39
2023-01-17T23:22:37.068Z,74.57
2023-01-17T23:25:12.486Z,74.22
2023-01-17T23:28:03.495Z,74.48
2023-01-17T23:30:35.436Z,74.59
2023-01-17T23:33:10.059Z,74.36
2023-01-17T23:35:41.634Z,74.60
2023-01-17T23:38:29.450Z,74.71
2023-01-17T23:41:25.761Z,74.27
2023-01-17T23:43:57.533Z,74.71
2023-01-17T23:46:25.463Z,74.66
2023-01-17T23:48:52.096Z,74.64
2023-01-17T23:51:18.807Z,74.95
2023-01-17T23:53:45.359Z,74.93
2023-01-17T23:56:23.133Z,74.90
2023-01-17T23:58:49.683Z,74.90
